Tuesday, January 22, 2019, 4:37 PM EST
Back to Local

KMTN, Baltimore / Martin

Location: Middle River, MD, United States Lat: 39.333
Local Time: 4:37 PM EST (21:37 GMT) Lon: -76.417
Time Zone: US/Eastern Elev: 22 ft

Show me the last for .
Show Decoded

2019-01-22 15:45 METAR KMTN 222045Z 13006KT 10SM SCT250 M02/M12 A3066 =
2019-01-22 14:45 METAR KMTN 221945Z 13007KT 10SM BKN250 M01/M09 A3066 =
2019-01-22 13:45 METAR KMTN 221845Z 12008KT 10SM SCT250 M01/M09 A3069 =
2019-01-22 12:45 METAR KMTN 221745Z 14005KT 10SM SCT250 M02/M11 A3071 =
2019-01-22 11:45 METAR KMTN 221645Z 00000KT 10SM FEW250 M03/M14 A3073 =
2019-01-22 10:45 METAR KMTN 221545Z 00000KT 10SM SKC M04/M15 A3076 =
2019-01-22 09:45 METAR KMTN 221445Z 31005KT 10SM SKC M06/M14 A3076 =
2019-01-22 08:45 METAR KMTN 221345Z 32004KT 10SM SKC M09/M14 A3075 =
2019-01-22 07:45 METAR KMTN 221245Z 32003KT 10SM SKC M09/M14 A3073 =
2019-01-22 06:45 METAR KMTN 221145Z 28006KT 10SM SKC M10/M14 A3072 =
2019-01-22 05:45 METAR KMTN 221045Z 27004KT 10SM SKC M09/M16 A3069 RMK FIRST =
2019-01-22 05:30 METAR KMTN 221030Z AUTO 26004KT 10SM CLR M09/M15 A3068 RMK AO2 =
2019-01-22 05:21 METAR KMTN 221021Z AUTO 00000KT 10SM CLR M09/M15 A3067 RMK AO2 =
2019-01-22 05:03 METAR KMTN 221003Z AUTO 30003KT 10SM CLR M09/M15 A3067 RMK AO2 =
2019-01-22 04:42 METAR KMTN 220942Z AUTO 30006KT 10SM CLR M08/M15 A3067 RMK AO2 =
2019-01-22 04:21 METAR KMTN 220921Z AUTO 30005KT 10SM CLR M09/M15 A3067 RMK AO2 =
2019-01-22 04:03 METAR KMTN 220903Z AUTO 28009KT 10SM CLR M09/M15 A3067 RMK AO2 =
2019-01-22 03:42 METAR KMTN 220842Z AUTO 29009KT 10SM CLR M09/M15 A3067 RMK AO2 =
2019-01-22 03:21 METAR KMTN 220821Z AUTO 28006KT 10SM CLR M09/M16 A3066 RMK AO2 =
2019-01-22 03:03 METAR KMTN 220803Z AUTO 27006G09KT 10SM CLR M08/M16 A3067 RMK AO2 =
2019-01-22 02:42 METAR KMTN 220742Z AUTO 27011KT 10SM CLR M08/M16 A3065 RMK AO2 =
2019-01-22 02:21 METAR KMTN 220721Z AUTO 27007KT 10SM CLR M08/M16 A3064 RMK AO2 =
2019-01-22 02:03 METAR KMTN 220703Z AUTO 27005KT 10SM CLR M08/M16 A3063 RMK AO2 =
2019-01-22 01:42 METAR KMTN 220642Z AUTO 27006KT 10SM CLR M08/M16 A3062 RMK AO2 =
2019-01-22 01:21 METAR KMTN 220621Z AUTO 26006KT 10SM CLR M08/M16 A3061 RMK AO2 =
2019-01-22 01:03 METAR KMTN 220603Z AUTO 28007KT 10SM CLR M08/M16 A3061 RMK AO2 =
2019-01-22 00:42 METAR KMTN 220542Z AUTO 27008KT 10SM CLR M08/M16 A3060 RMK AO2 =
2019-01-22 00:21 METAR KMTN 220521Z AUTO 27006KT 10SM CLR M08/M17 A3060 RMK AO2 =
2019-01-22 00:03 METAR KMTN 220503Z AUTO 27008KT 10SM CLR M08/M16 A3059 RMK AO2 =
2019-01-21 23:42 METAR KMTN 220442Z AUTO 27007KT 10SM CLR M08/M16 A3058 RMK AO2 =
2019-01-21 23:21 METAR KMTN 220421Z AUTO 28007KT 10SM CLR M08/M17 A3058 RMK AO2 =
2019-01-21 23:03 METAR KMTN 220403Z AUTO 29009KT 10SM CLR M08/M17 A3058 RMK AO2 =
2019-01-21 22:42 METAR KMTN 220342Z AUTO 28009KT 10SM CLR M07/M17 A3057 RMK AO2 =
2019-01-21 22:21 METAR KMTN 220321Z AUTO 28008G15KT 10SM CLR M07/M17 A3057 RMK AO2 =
2019-01-21 22:03 METAR KMTN 220303Z AUTO 27010KT 10SM CLR M07/M17 A3056 RMK AO2 =
2019-01-21 21:45 METAR KMTN 220245Z 29012G15KT 10SM SKC M08/M18 A3056 RMK LAST =
2019-01-21 20:45 METAR KMTN 220145Z 29012G15KT 10SM SKC M07/M18 A3054 =
2019-01-21 18:45 METAR KMTN 212345Z 28013G19KT 10SM SKC M07/M19 A3047 =
2019-01-21 17:45 METAR KMTN 212245Z 29019G32KT 10SM SKC M06/M20 A3043 =
2019-01-21 16:45 METAR KMTN 212145Z 30019G26KT 10SM SKC M06/M20 A3040 =

Support USWX by starting your Amazon purchase here.